Time;durP1;ratioP1;P1;durP2;ratioP2;P2;SDS_P1;SDS_P2;PMS_P1;PMS_P2;Temp;Humidity;BMP_temperature;BMP_pressure;BME280_temperature;BME280_humidity;BME280_pressure;Samples;Min_cycle;Max_cycle;Signal;HPM_P1;HPM_P2
2021/12/10 00:01:42;;;;;;;79.30;36.60;;;;;;;1.71;66.94;97786.30;212989;1324;138201;-60
2021/12/10 00:06:53;;;;;;;81.50;36.60;;;;;;;1.69;66.99;97768.16;212971;1322;139337;-59
2021/12/10 00:12:06;;;;;;;74.80;35.80;;;;;;;1.69;67.03;97771.50;212113;1322;138641;-63
2021/12/10 00:17:12;;;;;;;79.00;36.20;;;;;;;1.66;67.00;97763.80;213084;1320;139019;-62
2021/12/10 00:22:15;;;;;;;86.90;37.10;;;;;;;1.62;66.96;97763.81;213423;1319;138753;-55
2021/12/10 00:27:27;;;;;;;80.00;36.90;;;;;;;1.58;67.03;97755.05;212923;1320;138732;-56
2021/12/10 00:32:35;;;;;;;79.70;36.40;;;;;;;1.56;67.06;97748.87;212539;1327;138510;-58
2021/12/10 00:37:39;;;;;;;80.20;37.30;;;;;;;1.59;67.35;97756.06;212602;1326;138831;-61
2021/12/10 00:42:43;;;;;;;77.20;36.80;;;;;;;1.60;67.33;97742.88;213093;1319;139166;-57
2021/12/10 00:47:47;;;;;;;76.20;35.90;;;;;;;1.62;67.30;97733.17;212806;1322;138951;-58
2021/12/10 00:52:53;;;;;;;81.50;35.80;;;;;;;1.61;67.18;97731.84;213194;1320;139182;-60
2021/12/10 00:57:57;;;;;;;;;;;;;;;1.63;67.31;97725.48;212357;1326;138867;-60
2021/12/10 01:03:04;;;;;;;80.40;36.40;;;;;;;1.65;67.25;97710.84;213574;1319;125483;-62
2021/12/10 01:08:08;;;;;;;79.60;36.30;;;;;;;1.73;67.51;97707.70;212536;1326;138956;-60
2021/12/10 01:13:17;;;;;;;82.50;38.40;;;;;;;1.78;67.39;97701.85;212885;1319;138768;-57
2021/12/10 01:23:56;;;;;;;84.40;38.60;;;;;;;1.84;67.20;97723.09;212185;1322;139563;-59
2021/12/10 01:29:00;;;;;;;83.50;38.80;;;;;;;1.80;67.17;97721.52;212221;1320;138363;-57
2021/12/10 01:34:05;;;;;;;81.10;37.20;;;;;;;1.76;67.11;97730.27;212616;1332;139773;-59
2021/12/10 01:39:12;;;;;;;77.80;37.70;;;;;;;1.73;67.12;97740.05;213399;1319;138373;-57
2021/12/10 01:44:16;;;;;;;82.60;38.30;;;;;;;1.68;67.11;97741.14;213103;1326;141180;-58
2021/12/10 01:49:19;;;;;;;83.50;39.10;;;;;;;1.67;67.31;97739.97;212814;1322;138569;-57
2021/12/10 01:54:28;;;;;;;83.80;38.50;;;;;;;1.65;67.21;97741.45;213119;1323;139061;-59
2021/12/10 01:59:34;;;;;;;81.30;37.20;;;;;;;1.59;67.15;97727.23;212825;1325;139897;-58
2021/12/10 02:04:40;;;;;;;90.80;40.00;;;;;;;1.54;67.23;97734.29;212671;1320;139341;-63
2021/12/10 02:09:43;;;;;;;;;;;;;;;1.49;67.16;97744.13;212678;1324;139528;-57
2021/12/10 02:14:57;;;;;;;94.00;40.30;;;;;;;1.50;67.49;97742.00;212890;1323;125358;-59
2021/12/10 02:20:10;;;;;;;91.80;40.20;;;;;;;1.54;67.51;97733.09;213074;1319;138962;-58
2021/12/10 02:25:17;;;;;;;100.40;43.40;;;;;;;1.56;67.72;97727.35;212699;1320;140003;-61
2021/12/10 02:30:22;;;;;;;91.80;42.50;;;;;;;1.59;67.78;97713.42;212787;1322;139957;-57
2021/12/10 02:35:27;;;;;;;91.00;40.70;;;;;;;1.62;67.87;97701.05;212482;1325;138898;-59
2021/12/10 02:40:32;;;;;;;87.80;39.00;;;;;;;1.62;67.82;97692.81;212657;1326;139133;-57
2021/12/10 02:45:36;;;;;;;91.10;40.60;;;;;;;1.62;67.87;97686.90;212987;1320;138712;-58
2021/12/10 02:50:39;;;;;;;90.50;40.70;;;;;;;1.59;67.90;97676.20;213112;1320;138758;-58
2021/12/10 02:55:44;;;;;;;91.40;40.00;;;;;;;1.57;67.83;97689.23;213140;1327;139033;-56
2021/12/10 03:01:10;;;;;;;85.90;39.40;;;;;;;1.54;67.94;97677.15;212341;1328;138684;-60
2021/12/10 03:06:16;;;;;;;95.90;41.60;;;;;;;1.51;67.98;97677.27;213479;1319;139092;-59
2021/12/10 03:11:23;;;;;;;87.10;38.00;;;;;;;1.54;68.04;97682.21;212948;1320;139585;-62
2021/12/10 03:16:27;;;;;;;93.60;41.90;;;;;;;1.57;67.98;97686.80;213113;1319;167705;-61
2021/12/10 03:21:30;;;;;;;86.50;40.40;;;;;;;1.60;68.08;97690.45;213544;1320;139667;-59
2021/12/10 03:26:34;;;;;;;90.50;40.50;;;;;;;1.66;68.20;97685.47;212293;1329;140907;-61
2021/12/10 03:31:37;;;;;;;86.40;39.80;;;;;;;1.67;67.91;97706.92;213097;1320;139709;-62
2021/12/10 03:36:45;;;;;;;99.50;41.80;;;;;;;1.66;67.93;97696.31;213403;1319;138922;-59
2021/12/10 03:41:49;;;;;;;91.60;40.30;;;;;;;1.63;67.95;97693.13;212327;1326;138790;-61
2021/12/10 03:46:54;;;;;;;90.30;38.00;;;;;;;1.62;68.07;97689.50;212933;1327;139707;-58
2021/12/10 03:51:57;;;;;;;98.70;41.70;;;;;;;1.49;67.84;97688.91;212500;1327;139481;-56
2021/12/10 03:57:01;;;;;;;87.10;38.30;;;;;;;1.43;68.10;97687.78;213538;1322;142084;-58
2021/12/10 04:02:06;;;;;;;89.10;38.50;;;;;;;1.46;68.08;97705.48;213099;1319;139462;-58
2021/12/10 04:07:17;;;;;;;86.20;39.70;;;;;;;1.43;68.12;97706.33;212946;1322;138692;-58
2021/12/10 04:12:22;;;;;;;93.90;41.80;;;;;;;1.39;68.26;97718.19;213637;1322;138880;-60
2021/12/10 04:17:26;;;;;;;87.00;41.20;;;;;;;1.46;68.40;97723.13;212734;1320;140229;-56
2021/12/10 04:22:32;;;;;;;87.70;38.60;;;;;;;1.52;68.63;97716.58;213253;1322;139321;-58
2021/12/10 04:27:35;;;;;;;;;;;;;;;1.51;68.52;97710.33;212235;1331;138622;-62
2021/12/10 04:32:40;;;;;;;89.00;40.70;;;;;;;1.40;68.37;97703.48;212306;1328;124784;-59
2021/12/10 04:37:43;;;;;;;159.10;84.30;;;;;;;1.34;68.53;97710.25;212638;1327;140473;-57
2021/12/10 04:42:47;;;;;;;87.30;39.90;;;;;;;1.46;69.04;97720.16;212872;1320;140004;-56
2021/12/10 04:47:50;;;;;;;89.30;39.40;;;;;;;1.56;68.85;97719.70;212223;1325;140786;-59
2021/12/10 04:52:55;;;;;;;87.90;38.70;;;;;;;1.59;68.80;97722.14;213153;1320;139883;-60
2021/12/10 04:57:58;;;;;;;95.40;41.30;;;;;;;1.66;69.05;97724.61;212521;1323;138414;-60
2021/12/10 05:03:01;;;;;;;99.30;40.30;;;;;;;1.75;68.87;97733.66;212905;1319;139233;-59
2021/12/10 05:08:07;;;;;;;88.20;39.40;;;;;;;1.67;68.56;97738.55;212643;1322;139132;-59
2021/12/10 05:13:10;;;;;;;95.80;40.60;;;;;;;1.63;68.54;97741.71;213195;1320;140040;-61
2021/12/10 05:18:15;;;;;;;92.20;38.80;;;;;;;1.59;68.72;97734.03;213384;1319;142214;-59
2021/12/10 05:23:19;;;;;;;82.20;35.50;;;;;;;1.59;68.64;97729.69;212812;1326;139084;-58
2021/12/10 05:28:22;;;;;;;100.50;40.00;;;;;;;1.51;68.58;97725.50;212717;1325;140949;-59
2021/12/10 05:33:27;;;;;;;85.60;39.40;;;;;;;1.50;68.65;97724.35;213376;1319;139674;-60
2021/12/10 05:38:31;;;;;;;86.80;39.10;;;;;;;1.53;68.71;97714.77;212577;1322;139583;-59
2021/12/10 05:43:36;;;;;;;88.20;40.40;;;;;;;1.62;68.94;97706.29;212363;1327;139020;-59
2021/12/10 05:48:41;;;;;;;86.90;40.20;;;;;;;1.69;68.81;97703.50;212333;1326;140767;-57
2021/12/10 05:53:45;;;;;;;89.70;39.30;;;;;;;1.69;68.67;97709.82;212533;1319;140831;-58
2021/12/10 05:58:48;;;;;;;87.80;39.80;;;;;;;1.63;68.49;97706.23;212789;1322;138841;-57
2021/12/10 06:03:52;;;;;;;83.90;40.50;;;;;;;1.62;68.58;97708.73;212722;1323;138899;-58
2021/12/10 06:08:58;;;;;;;88.40;40.50;;;;;;;1.61;68.53;97711.95;212844;1323;139640;-57
2021/12/10 06:14:03;;;;;;;91.40;40.70;;;;;;;1.60;68.56;97723.15;213687;1319;139843;-57
2021/12/10 06:19:07;;;;;;;97.30;40.80;;;;;;;1.60;68.65;97730.50;213182;1319;140859;-59
2021/12/10 06:24:10;;;;;;;94.80;40.80;;;;;;;1.60;68.72;97739.95;212820;1326;139100;-60
2021/12/10 06:29:13;;;;;;;93.50;42.60;;;;;;;1.63;68.64;97742.27;213293;1323;139302;-58
2021/12/10 06:34:16;;;;;;;87.80;41.20;;;;;;;1.65;68.51;97748.77;213196;1320;139158;-58
2021/12/10 06:39:20;;;;;;;94.90;42.30;;;;;;;1.63;68.53;97745.90;212925;1319;140645;-62
2021/12/10 06:44:23;;;;;;;93.20;42.20;;;;;;;1.62;68.60;97750.83;213151;1319;139084;-60
2021/12/10 06:49:26;;;;;;;88.20;41.00;;;;;;;1.64;68.77;97746.92;212907;1322;139234;-59
2021/12/10 06:54:29;;;;;;;87.30;41.20;;;;;;;1.63;68.81;97736.12;212696;1327;138565;-59
2021/12/10 06:59:33;;;;;;;96.30;43.00;;;;;;;1.63;68.85;97732.28;212457;1322;139200;-61
2021/12/10 07:04:40;;;;;;;93.80;42.10;;;;;;;1.67;68.92;97731.92;212480;1323;138847;-59
2021/12/10 07:09:47;;;;;;;99.30;43.70;;;;;;;1.71;68.88;97725.99;212964;1320;139876;-59
2021/12/10 07:14:50;;;;;;;108.70;44.90;;;;;;;1.71;68.79;97728.77;212890;1326;138764;-58
2021/12/10 07:19:54;;;;;;;96.50;43.70;;;;;;;1.75;68.74;97732.60;213558;1319;139390;-61
2021/12/10 07:24:57;;;;;;;94.00;42.50;;;;;;;1.82;68.91;97732.08;212253;1328;139338;-57
2021/12/10 07:30:00;;;;;;;99.20;44.50;;;;;;;1.88;68.86;97744.57;212466;1327;138887;-59
2021/12/10 07:35:06;;;;;;;99.70;43.70;;;;;;;1.94;68.86;97740.76;212781;1326;139853;-62
2021/12/10 07:40:14;;;;;;;99.40;45.10;;;;;;;2.05;68.97;97746.90;212823;1322;138975;-59
2021/12/10 07:45:20;;;;;;;93.60;45.20;;;;;;;2.16;69.02;97757.73;213234;1320;140744;-62
2021/12/10 07:50:33;;;;;;;97.60;42.40;;;;;;;2.24;68.84;97767.16;213955;1320;139125;-60
2021/12/10 07:55:38;;;;;;;93.10;40.80;;;;;;;2.24;68.65;97760.65;212841;1323;138881;-62
2021/12/10 08:00:43;;;;;;;;;;;;;;;2.19;68.58;97764.94;212536;1324;138818;-59
2021/12/10 08:05:47;;;;;;;96.80;42.30;;;;;;;2.19;68.73;97766.00;213091;1320;126291;-59
2021/12/10 08:10:51;;;;;;;98.20;45.10;;;;;;;2.29;68.73;97757.07;212841;1326;140244;-59
2021/12/10 08:15:54;;;;;;;100.50;45.10;;;;;;;2.43;68.87;97759.89;212913;1322;138738;-63
2021/12/10 08:20:58;;;;;;;79.90;39.80;;;;;;;2.51;68.80;97759.14;212573;1326;140701;-60
2021/12/10 08:26:01;;;;;;;85.80;41.50;;;;;;;2.53;68.61;97769.70;213146;1323;139527;-64
2021/12/10 08:31:05;;;;;;;83.70;41.70;;;;;;;2.54;68.54;97778.78;212935;1326;139730;-65
2021/12/10 08:36:09;;;;;;;82.20;39.90;;;;;;;2.56;68.63;97782.86;212682;1322;139515;-66
2021/12/10 08:41:16;;;;;;;82.30;39.80;;;;;;;2.60;68.63;97785.48;212770;1325;138770;-61
2021/12/10 08:46:19;;;;;;;87.00;43.10;;;;;;;2.60;68.45;97793.88;213004;1319;138820;-58
2021/12/10 08:51:29;;;;;;;84.50;42.10;;;;;;;2.64;68.58;97789.15;213029;1319;139434;-61
2021/12/10 08:56:33;;;;;;;92.70;44.40;;;;;;;2.65;68.50;97791.01;212641;1323;140352;-62
2021/12/10 09:01:42;;;;;;;89.80;44.40;;;;;;;2.75;68.60;97789.63;212643;1319;139358;-59
2021/12/10 09:06:49;;;;;;;90.60;44.90;;;;;;;2.79;68.51;97788.55;213244;1320;139489;-61
2021/12/10 09:11:56;;;;;;;98.40;46.20;;;;;;;2.79;68.44;97790.30;212857;1319;139144;-60
2021/12/10 09:17:01;;;;;;;92.80;42.40;;;;;;;2.77;68.13;97783.06;212880;1325;138999;-59
2021/12/10 09:22:06;;;;;;;92.20;45.40;;;;;;;2.73;68.23;97779.77;212996;1319;140666;-62
2021/12/10 09:27:11;;;;;;;68.60;33.40;;;;;;;2.74;68.29;97777.61;212842;1320;139457;-61
2021/12/10 09:32:17;;;;;;;94.20;46.20;;;;;;;2.76;68.35;97768.38;212527;1328;139756;-62
2021/12/10 09:37:22;;;;;;;92.90;43.50;;;;;;;2.78;68.23;97761.27;212825;1320;139721;-61
2021/12/10 09:42:25;;;;;;;90.80;44.90;;;;;;;2.77;68.20;97751.38;212977;1319;139300;-61
2021/12/10 09:47:29;;;;;;;100.40;46.20;;;;;;;2.81;68.32;97754.11;213376;1322;138746;-60
2021/12/10 09:52:32;;;;;;;97.20;47.40;;;;;;;2.90;68.50;97749.98;213036;1320;140640;-61
2021/12/10 09:57:38;;;;;;;103.70;48.10;;;;;;;3.00;68.56;97750.30;212656;1324;139433;-63
2021/12/10 10:02:54;;;;;;;93.70;45.40;;;;;;;3.12;68.55;97747.41;212170;1322;140515;-60
2021/12/10 10:08:02;;;;;;;93.00;46.80;;;;;;;3.21;68.29;97744.64;212504;1320;139492;-62
2021/12/10 10:13:08;;;;;;;102.50;48.50;;;;;;;3.27;68.53;97735.73;213126;1325;138474;-63
2021/12/10 10:18:13;;;;;;;94.60;46.60;;;;;;;3.40;68.39;97738.23;212858;1323;139081;-67
2021/12/10 10:23:17;;;;;;;96.00;47.40;;;;;;;3.56;68.47;97746.44;212935;1326;138980;-64
2021/12/10 10:28:21;;;;;;;90.60;44.10;;;;;;;3.70;68.46;97740.44;212792;1322;139608;-61
2021/12/10 10:33:26;;;;;;;102.50;49.30;;;;;;;3.72;68.07;97730.33;213330;1322;139404;-63
2021/12/10 10:38:30;;;;;;;95.70;47.20;;;;;;;3.73;67.94;97722.56;213526;1319;139489;-60
2021/12/10 10:43:34;;;;;;;95.10;46.70;;;;;;;3.70;67.79;97725.87;212623;1326;138837;-59
2021/12/10 10:48:39;;;;;;;101.10;47.50;;;;;;;3.69;68.00;97730.15;212792;1322;139624;-62
2021/12/10 10:53:47;;;;;;;415.70;242.70;;;;;;;3.72;68.20;97733.50;212622;1326;139590;-58
2021/12/10 10:58:56;;;;;;;104.10;50.40;;;;;;;3.86;68.53;97738.84;212812;1320;139367;-59
2021/12/10 11:04:04;;;;;;;105.50;49.60;;;;;;;3.94;68.10;97739.64;212409;1329;140870;-59
2021/12/10 11:09:15;;;;;;;103.70;49.70;;;;;;;4.00;68.18;97740.53;213656;1322;139607;-59
2021/12/10 11:14:33;;;;;;;109.30;53.30;;;;;;;4.09;68.18;97730.20;214053;1319;206096;-58
2021/12/10 11:19:36;;;;;;;112.90;50.50;;;;;;;4.17;68.01;97728.12;214420;1318;138940;-59
2021/12/10 11:24:47;;;;;;;102.60;51.10;;;;;;;4.29;68.04;97739.36;214943;1320;138724;-59
2021/12/10 11:30:25;;;;;;;104.70;51.90;;;;;;;4.38;67.94;97741.85;213902;1319;138986;-59
2021/12/10 11:35:39;;;;;;;101.20;49.10;;;;;;;4.39;67.93;97734.59;214828;1320;138666;-57
2021/12/10 11:40:51;;;;;;;104.70;49.80;;;;;;;4.34;67.53;97733.52;213541;1319;139006;-56
2021/12/10 11:46:15;;;;;;;157.40;79.00;;;;;;;4.41;69.10;97737.46;215056;1322;138522;-56
2021/12/10 11:51:28;;;;;;;100.40;47.60;;;;;;;7.11;76.11;97737.81;214950;1320;139089;-59
2021/12/10 11:56:57;;;;;;;101.80;49.10;;;;;;;9.51;73.06;97719.88;214470;1318;139906;-58
2021/12/10 12:01:59;;;;;;;108.70;52.30;;;;;;;10.74;69.58;97712.59;212615;1320;139337;-58
2021/12/10 12:07:40;;;;;;;98.20;50.40;;;;;;;11.26;66.85;97707.09;212872;1323;139932;-58
2021/12/10 12:18:22;;;;;;;;;;;;;;;11.59;63.14;97705.09;213375;1325;139759;-58
2021/12/10 12:29:04;;;;;;;103.60;53.60;;;;;;;11.08;60.97;97684.70;212435;1325;125978;-57
2021/12/10 12:34:20;;;;;;;110.50;56.20;;;;;;;10.67;60.11;97683.65;213391;1323;139702;-58
2021/12/10 12:39:46;;;;;;;102.90;53.70;;;;;;;10.35;60.18;97684.98;213133;1323;139871;-61
2021/12/10 12:44:54;;;;;;;;;;;;;;;10.11;60.11;97683.71;212640;1324;139509;-56
2021/12/10 12:50:24;;;;;;;99.70;53.30;;;;;;;9.84;59.86;97694.24;213414;1320;125320;-56
2021/12/10 12:55:56;;;;;;;111.40;56.10;;;;;;;9.55;59.64;97696.04;212765;1326;142490;-60
2021/12/10 13:01:06;;;;;;;108.20;57.70;;;;;;;9.03;58.44;97693.36;212475;1327;139524;-57
2021/12/10 13:06:15;;;;;;;111.50;58.90;;;;;;;8.03;57.68;97696.25;212510;1328;139279;-56
2021/12/10 13:11:30;;;;;;;117.80;57.90;;;;;;;7.16;58.04;97699.50;213050;1323;140748;-57
2021/12/10 13:16:40;;;;;;;115.40;58.10;;;;;;;6.46;58.73;97702.16;213041;1320;138915;-59
2021/12/10 13:21:48;;;;;;;108.70;56.70;;;;;;;6.00;59.88;97700.11;212366;1327;140121;-59
2021/12/10 13:26:51;;;;;;;114.20;56.80;;;;;;;5.60;60.07;97711.44;212396;1328;141281;-61
2021/12/10 13:31:55;;;;;;;116.40;58.70;;;;;;;5.25;60.57;97712.41;212781;1324;138512;-59
2021/12/10 13:36:59;;;;;;;691.20;438.20;;;;;;;4.98;61.15;97714.77;212498;1328;139545;-57
2021/12/10 13:42:03;;;;;;;131.60;61.10;;;;;;;4.84;61.72;97719.80;213326;1320;139122;-60
2021/12/10 13:47:31;;;;;;;119.40;56.40;;;;;;;4.65;61.93;97714.97;213326;1322;138750;-61
2021/12/10 13:53:13;;;;;;;113.60;55.80;;;;;;;4.51;62.35;97719.34;212838;1323;139336;-57
2021/12/10 13:58:26;;;;;;;107.00;55.00;;;;;;;4.40;62.67;97715.77;212872;1320;138982;-57
2021/12/10 14:03:40;;;;;;;112.80;57.00;;;;;;;4.31;63.14;97715.40;213170;1320;139794;-58
2021/12/10 14:08:44;;;;;;;120.60;58.50;;;;;;;4.24;63.22;97715.77;212066;1323;141605;-58
2021/12/10 14:14:02;;;;;;;114.60;56.40;;;;;;;4.20;63.39;97716.23;212514;1324;144010;-59
2021/12/10 14:19:05;;;;;;;213.60;104.80;;;;;;;4.13;63.45;97708.20;212525;1326;139208;-58
2021/12/10 14:24:34;;;;;;;123.90;58.00;;;;;;;4.15;63.85;97701.20;212775;1322;139407;-58
2021/12/10 14:30:20;;;;;;;128.10;59.60;;;;;;;4.08;63.91;97704.77;212962;1323;139098;-60
2021/12/10 14:35:27;;;;;;;120.50;58.50;;;;;;;3.94;63.90;97713.11;212909;1320;138864;-58
2021/12/10 14:40:39;;;;;;;115.40;56.80;;;;;;;3.80;63.76;97723.02;212306;1326;140767;-57
2021/12/10 14:46:02;;;;;;;117.90;56.90;;;;;;;3.65;64.02;97721.08;212799;1319;139498;-58
2021/12/10 14:51:12;;;;;;;116.60;56.20;;;;;;;3.53;64.36;97715.58;213360;1320;150363;-57
2021/12/10 14:57:02;;;;;;;114.70;57.30;;;;;;;3.55;65.10;97718.98;212380;1328;139169;-63
2021/12/10 15:02:31;;;;;;;116.10;55.90;;;;;;;3.57;64.60;97715.77;212522;1325;139253;-58
2021/12/10 15:07:56;;;;;;;112.30;55.40;;;;;;;3.44;64.63;97709.25;212499;1326;139024;-57
2021/12/10 15:13:36;;;;;;;114.90;56.80;;;;;;;3.34;64.70;97717.53;212770;1323;139607;-58
2021/12/10 15:19:08;;;;;;;110.00;54.80;;;;;;;3.20;64.95;97725.09;212870;1323;138817;-57
2021/12/10 15:24:17;;;;;;;125.40;57.40;;;;;;;3.09;64.86;97727.09;213232;1320;139058;-56
2021/12/10 15:29:24;;;;;;;143.90;57.60;;;;;;;3.00;65.10;97724.77;212574;1326;139451;-56
2021/12/10 15:34:30;;;;;;;155.50;58.00;;;;;;;2.97;65.41;97725.44;212882;1319;139740;-58
2021/12/10 15:39:36;;;;;;;135.00;57.60;;;;;;;2.99;65.71;97725.68;212778;1325;139175;-57
2021/12/10 15:44:41;;;;;;;111.40;56.20;;;;;;;3.01;65.79;97722.75;212581;1322;138806;-59
2021/12/10 15:49:45;;;;;;;121.30;56.00;;;;;;;2.99;65.95;97717.99;212808;1320;138620;-58
2021/12/10 15:54:53;;;;;;;115.00;57.50;;;;;;;2.95;66.02;97720.28;212614;1320;138822;-61
2021/12/10 16:00:02;;;;;;;120.10;56.60;;;;;;;2.95;66.15;97716.08;212399;1329;139501;-58
2021/12/10 16:05:11;;;;;;;119.00;56.50;;;;;;;2.97;66.37;97718.09;212988;1320;139061;-60
2021/12/10 16:10:38;;;;;;;118.10;55.80;;;;;;;2.96;66.29;97714.84;213273;1317;139956;-59
2021/12/10 16:15:46;;;;;;;116.40;53.80;;;;;;;2.96;66.48;97716.06;212576;1326;138602;-62
2021/12/10 16:20:55;;;;;;;131.60;58.10;;;;;;;2.95;66.57;97721.50;212437;1326;138717;-57
2021/12/10 16:26:02;;;;;;;102.30;49.90;;;;;;;2.99;66.71;97717.79;212420;1326;139637;-59
2021/12/10 16:31:13;;;;;;;149.10;77.00;;;;;;;3.10;67.24;97725.10;212874;1325;139511;-61
2021/12/10 16:36:17;;;;;;;105.10;52.20;;;;;;;3.35;67.08;97724.80;213254;1322;138720;-59
2021/12/10 16:41:28;;;;;;;110.70;52.70;;;;;;;3.29;66.56;97724.95;212995;1322;139654;-63
2021/12/10 16:46:35;;;;;;;101.40;51.10;;;;;;;3.19;66.33;97720.42;212547;1321;139102;-60
2021/12/10 16:51:42;;;;;;;111.20;53.60;;;;;;;3.06;66.40;97716.35;212291;1323;140871;-60
2021/12/10 16:56:54;;;;;;;107.70;53.10;;;;;;;2.95;66.47;97716.08;212222;1321;139143;-60
2021/12/10 17:02:03;;;;;;;112.20;53.20;;;;;;;2.81;66.26;97716.09;213273;1320;139172;-61
2021/12/10 17:07:12;;;;;;;109.70;53.50;;;;;;;2.67;66.38;97720.17;212618;1320;139086;-61
2021/12/10 17:12:19;;;;;;;110.10;52.30;;;;;;;2.53;66.31;97726.65;213265;1320;139481;-59
2021/12/10 17:17:27;;;;;;;105.40;53.10;;;;;;;2.41;66.39;97720.77;212548;1326;140163;-61
2021/12/10 17:22:34;;;;;;;116.80;56.20;;;;;;;2.33;66.73;97733.46;212525;1327;138777;-59
2021/12/10 17:27:38;;;;;;;120.30;55.90;;;;;;;2.28;66.71;97731.80;212744;1319;139363;-61
2021/12/10 17:32:42;;;;;;;122.40;56.20;;;;;;;2.24;66.86;97735.84;213118;1322;139702;-60
2021/12/10 17:37:46;;;;;;;111.20;55.30;;;;;;;2.24;67.01;97741.77;212601;1323;140108;-60
2021/12/10 17:43:11;;;;;;;116.10;57.50;;;;;;;2.27;66.94;97751.23;212484;1326;138662;-59
2021/12/10 17:48:16;;;;;;;149.50;78.10;;;;;;;2.31;67.27;97744.59;212493;1322;139457;-59
2021/12/10 17:53:19;;;;;;;121.70;59.20;;;;;;;2.50;67.70;97748.52;213115;1320;138632;-60
2021/12/10 17:58:29;;;;;;;118.30;60.40;;;;;;;2.51;67.15;97756.68;212618;1319;138619;-57
2021/12/10 18:03:35;;;;;;;122.70;59.30;;;;;;;2.47;67.20;97753.23;213510;1319;139634;-58
2021/12/10 18:08:58;;;;;;;128.90;61.40;;;;;;;2.43;67.24;97750.12;212953;1320;139327;-59
2021/12/10 18:14:01;;;;;;;118.40;59.80;;;;;;;2.44;67.27;97746.04;212708;1323;139527;-62
2021/12/10 18:19:04;;;;;;;121.10;61.40;;;;;;;2.40;67.16;97738.36;213507;1319;140684;-62
2021/12/10 18:24:17;;;;;;;128.10;64.10;;;;;;;2.33;67.19;97742.19;212708;1321;138891;-59
2021/12/10 18:29:25;;;;;;;139.40;65.60;;;;;;;2.26;67.16;97739.41;212413;1329;139321;-59
2021/12/10 18:34:31;;;;;;;167.60;84.20;;;;;;;2.29;67.57;97747.78;212832;1322;141010;-59
2021/12/10 18:39:45;;;;;;;120.40;63.10;;;;;;;2.60;68.05;97753.42;212435;1318;139483;-60
2021/12/10 18:45:11;;;;;;;134.30;65.90;;;;;;;2.63;67.44;97756.79;212197;1326;139753;-61
2021/12/10 18:50:20;;;;;;;;;;;;;;;2.62;67.21;97768.39;213496;1319;138789;-58
2021/12/10 18:55:31;;;;;;;144.50;69.70;;;;;;;2.58;67.35;97776.96;212715;1320;125113;-58
2021/12/10 19:00:49;;;;;;;140.40;70.20;;;;;;;2.58;67.48;97771.02;213217;1323;141503;-59
2021/12/10 19:06:09;;;;;;;142.90;68.30;;;;;;;2.55;67.42;97764.35;212252;1331;140580;-60
2021/12/10 19:11:17;;;;;;;140.70;67.10;;;;;;;2.56;67.55;97761.20;212965;1319;139667;-58
2021/12/10 19:16:29;;;;;;;139.80;67.40;;;;;;;2.54;67.62;97768.97;212737;1319;205703;-60
2021/12/10 19:21:39;;;;;;;144.70;69.00;;;;;;;2.53;67.51;97777.27;212974;1326;139019;-62
2021/12/10 19:26:48;;;;;;;138.90;67.30;;;;;;;2.50;67.60;97776.70;212895;1320;139164;-62
2021/12/10 19:32:15;;;;;;;405.80;220.50;;;;;;;2.48;67.85;97779.76;212794;1319;138794;-60
2021/12/10 19:37:47;;;;;;;138.90;64.20;;;;;;;2.73;68.52;97784.34;212830;1323;139554;-58
2021/12/10 19:43:05;;;;;;;125.30;58.00;;;;;;;2.85;68.07;97787.71;213728;1321;139192;-61
2021/12/10 19:48:16;;;;;;;124.30;55.40;;;;;;;2.93;68.17;97786.27;213243;1319;140050;-57
2021/12/10 19:53:28;;;;;;;135.30;59.30;;;;;;;2.97;68.15;97782.36;213286;1320;138661;-58
2021/12/10 19:58:41;;;;;;;133.00;58.30;;;;;;;2.97;67.96;97781.52;212722;1319;138587;-64
2021/12/10 20:03:49;;;;;;;137.40;58.50;;;;;;;2.91;68.12;97787.21;213391;1320;139056;-57
2021/12/10 20:08:58;;;;;;;137.50;57.60;;;;;;;2.88;68.32;97794.05;213293;1319;141805;-59
2021/12/10 20:14:01;;;;;;;144.70;61.30;;;;;;;2.83;68.08;97803.73;212858;1319;139102;-59
2021/12/10 20:19:19;;;;;;;136.10;61.20;;;;;;;2.78;68.15;97804.52;212773;1320;141096;-58
2021/12/10 20:24:37;;;;;;;140.80;63.20;;;;;;;2.76;68.32;97803.07;212932;1326;139252;-58
2021/12/10 20:29:52;;;;;;;151.90;63.90;;;;;;;2.75;68.39;97804.69;212796;1324;139303;-57
2021/12/10 20:35:30;;;;;;;141.60;62.10;;;;;;;2.79;68.61;97810.10;212370;1325;140145;-60
2021/12/10 20:40:41;;;;;;;151.10;64.20;;;;;;;2.88;68.69;97819.28;213523;1320;139754;-57
2021/12/10 20:45:55;;;;;;;149.50;64.90;;;;;;;2.94;68.76;97822.13;212850;1320;140515;-60
2021/12/10 20:51:00;;;;;;;145.50;65.10;;;;;;;2.98;68.60;97824.58;212666;1320;139983;-57
2021/12/10 20:56:09;;;;;;;141.50;63.60;;;;;;;2.97;68.58;97834.93;212990;1320;140014;-60
2021/12/10 21:01:24;;;;;;;152.90;63.80;;;;;;;2.93;68.41;97829.16;213458;1319;139775;-61
2021/12/10 21:06:31;;;;;;;;;;;;;;;2.88;68.46;97832.41;213383;1319;139428;-58
2021/12/10 21:11:48;;;;;;;152.40;67.30;;;;;;;2.79;68.38;97841.60;212890;1320;124690;-59
2021/12/10 21:17:05;;;;;;;159.50;67.80;;;;;;;2.73;68.61;97841.73;212586;1321;138850;-58
2021/12/10 21:22:13;;;;;;;148.90;63.60;;;;;;;2.69;68.59;97841.06;212941;1325;139193;-59
2021/12/10 21:27:22;;;;;;;156.00;64.90;;;;;;;2.63;68.74;97840.84;212851;1320;139468;-58
2021/12/10 21:32:33;;;;;;;137.20;60.50;;;;;;;2.61;68.78;97847.40;212357;1326;140213;-59
2021/12/10 21:37:57;;;;;;;130.20;57.70;;;;;;;2.68;69.00;97855.30;212553;1319;139085;-57
2021/12/10 21:43:06;;;;;;;132.30;59.40;;;;;;;2.72;68.95;97859.32;212417;1321;139217;-57
2021/12/10 21:48:11;;;;;;;125.50;55.20;;;;;;;2.71;68.89;97867.40;212992;1319;138628;-60
2021/12/10 21:53:17;;;;;;;;;;;;;;;2.70;68.94;97866.96;213297;1319;138889;-60
2021/12/10 21:58:25;;;;;;;132.10;54.90;;;;;;;2.65;68.82;97868.42;212628;1322;127242;-58
2021/12/10 22:03:37;;;;;;;122.30;54.90;;;;;;;2.57;68.83;97872.80;212624;1319;139353;-58
2021/12/10 22:08:48;;;;;;;129.70;53.60;;;;;;;2.53;69.03;97875.62;213284;1319;138662;-58
2021/12/10 22:13:57;;;;;;;132.10;53.80;;;;;;;2.52;69.07;97873.95;213081;1322;139048;-61
2021/12/10 22:19:08;;;;;;;128.80;55.80;;;;;;;2.48;69.11;97871.16;212014;1321;139740;-61
2021/12/10 22:24:26;;;;;;;132.50;54.80;;;;;;;2.48;69.24;97870.30;212836;1319;140688;-63
2021/12/10 22:29:38;;;;;;;121.40;52.90;;;;;;;2.51;69.35;97882.89;213058;1325;139440;-60
2021/12/10 22:34:57;;;;;;;121.90;56.20;;;;;;;2.54;69.28;97879.60;212872;1325;139422;-60
2021/12/10 22:40:05;;;;;;;130.20;54.60;;;;;;;2.57;69.46;97879.83;212328;1322;139034;-65
2021/12/10 22:45:12;;;;;;;119.90;52.60;;;;;;;2.56;69.24;97877.41;212488;1326;139298;-59
2021/12/10 22:50:20;;;;;;;115.70;50.90;;;;;;;2.58;69.36;97876.77;213320;1320;139485;-59
2021/12/10 22:55:30;;;;;;;135.30;55.60;;;;;;;2.55;69.26;97880.63;212618;1322;138925;-59
2021/12/10 23:00:36;;;;;;;114.70;52.90;;;;;;;2.54;69.31;97882.61;212480;1325;139052;-59
2021/12/10 23:05:49;;;;;;;118.40;54.10;;;;;;;2.48;69.15;97884.77;213660;1319;140457;-62
2021/12/10 23:10:52;;;;;;;139.10;56.40;;;;;;;2.40;69.18;97884.14;213767;1319;138994;-61
2021/12/10 23:16:00;;;;;;;132.40;55.70;;;;;;;2.39;69.37;97888.58;212292;1325;139338;-59
2021/12/10 23:26:15;;;;;;;125.30;54.40;;;;;;;2.46;69.45;97902.23;212870;1320;138780;-58
2021/12/10 23:31:19;;;;;;;133.40;56.20;;;;;;;2.49;69.60;97904.52;212921;1323;140304;-61
2021/12/10 23:36:25;;;;;;;130.50;55.40;;;;;;;2.53;69.58;97919.24;213310;1319;139809;-59
2021/12/10 23:41:32;;;;;;;;;;;;;;;2.53;69.62;97929.00;213228;1322;138831;-60